createdAt,value
2023-04-01T00:08:22.036Z,0.9
2023-04-01T00:10:23.760Z,0.8
2023-04-01T00:12:28.157Z,1.1
2023-04-01T00:14:29.846Z,1.3
2023-04-01T00:16:31.569Z,1.1
2023-04-01T00:18:35.913Z,1.2
2023-04-01T00:20:37.655Z,1.2
2023-04-01T00:22:39.436Z,1
2023-04-01T00:24:43.824Z,1.2
2023-04-01T00:26:45.570Z,1.3
2023-04-01T00:28:47.272Z,0.9
2023-04-01T00:32:53.380Z,1.3
2023-04-01T00:34:55.031Z,1.2
2023-04-01T00:36:59.424Z,1.1
2023-04-01T00:39:01.147Z,1.4
2023-04-01T00:41:02.850Z,1.4
2023-04-01T00:43:07.322Z,2.2
2023-04-01T00:45:08.942Z,1.8
2023-04-01T00:47:10.683Z,2.5
2023-04-01T00:49:14.989Z,3
2023-04-01T00:51:16.722Z,3
2023-04-01T00:53:18.438Z,3.3
2023-04-01T00:55:22.821Z,3.2
2023-04-01T00:57:24.644Z,3.7
2023-04-01T00:59:26.266Z,4
2023-04-01T01:01:30.691Z,3.7
2023-04-01T01:03:32.372Z,3.8
2023-04-01T01:05:42.398Z,3.5
2023-04-01T01:07:38.608Z,4.1
2023-04-01T01:09:40.285Z,4.2
2023-04-01T01:11:43.854Z,3.8
2023-04-01T01:13:46.857Z,4.3
2023-04-01T01:21:55.888Z,5.3
2023-04-01T01:23:57.596Z,5.8
2023-04-01T01:26:01.981Z,6.1
2023-04-01T01:57:34.370Z,3.8
2023-04-01T01:59:35.970Z,5.3
2023-04-01T02:02:00.371Z,4.2
2023-04-01T02:07:48.215Z,5.5
2023-04-01T02:09:49.844Z,7.3
2023-04-01T02:11:51.570Z,7.2
2023-04-01T02:13:55.946Z,7.5
2023-04-01T02:15:57.683Z,7.7
2023-04-01T02:22:05.494Z,10.9
2023-04-01T02:24:07.204Z,9.7
2023-04-01T02:46:36.754Z,10.2
2023-04-01T02:48:38.426Z,8.8
2023-04-01T02:50:42.776Z,7
2023-04-01T03:09:06.215Z,8.9
2023-04-01T03:13:09.698Z,8.5
2023-04-01T03:34:00.414Z,5.9
2023-04-01T03:52:12.549Z,5.1
2023-04-01T03:56:16.157Z,5.1
2023-04-01T03:58:30.245Z,5.6
2023-04-01T04:00:23.133Z,5.2
2023-04-01T04:04:28.800Z,5.7
2023-04-01T04:06:30.545Z,5.9
2023-04-01T04:10:36.834Z,5.2
2023-04-01T04:14:40.234Z,5.7
2023-04-01T04:16:44.599Z,6.3
2023-04-01T04:18:46.313Z,4.9
2023-04-01T04:20:48.016Z,5.5
2023-04-01T04:22:52.425Z,6.7
2023-04-01T04:24:54.295Z,6.5
2023-04-01T04:26:55.947Z,5.7
2023-04-01T04:29:00.334Z,6.6
2023-04-01T04:31:02.013Z,6.9
2023-04-01T04:33:03.787Z,7.3
2023-04-01T04:42:18.497Z,6.5
2023-04-01T05:17:05.560Z,6.4
2023-04-01T05:25:15.112Z,7.5
2023-04-01T05:27:16.921Z,8.8
2023-04-01T05:29:21.387Z,7.1
2023-04-01T05:31:23.409Z,7.3
2023-04-01T05:33:24.973Z,8.3
2023-04-01T05:36:17.480Z,7.4
2023-04-01T06:41:14.207Z,9.5
2023-04-01T06:43:15.987Z,9.4
2023-04-01T06:45:17.737Z,9.2
2023-04-01T07:22:47.351Z,5.8
2023-04-01T07:24:15.505Z,6
2023-04-01T08:55:57.027Z,4.5
2023-04-01T09:00:00.550Z,5.2
2023-04-01T09:02:24.899Z,5.1
2023-04-01T09:04:26.585Z,5.2
2023-04-01T09:08:33.546Z,4
2023-04-01T09:10:35.260Z,3.7
2023-04-01T09:12:37.083Z,3.7
2023-04-01T09:16:22.469Z,3.9
2023-04-01T09:16:40.569Z,2.9
2023-04-01T09:18:42.323Z,2.7
2023-04-01T09:28:54.626Z,2
2023-04-01T09:32:58.199Z,1.8
2023-04-01T09:34:59.924Z,1.9
2023-04-01T09:37:05.156Z,2.3
2023-04-01T09:39:06.957Z,2.4
2023-04-01T09:41:08.698Z,1.7
2023-04-01T09:43:10.528Z,1.8
2023-04-01T09:53:22.861Z,0.5
2023-04-01T09:56:27.257Z,0.6
2023-04-01T09:58:29.111Z,0.2
2023-04-01T10:00:30.781Z,0.6
2023-04-01T10:02:32.593Z,0.2
2023-04-01T10:04:37.806Z,0.7
2023-04-01T10:29:02.602Z,0.3
2023-04-01T10:33:09.574Z,0.6
2023-04-01T10:35:11.294Z,0.8
2023-04-01T10:37:13.085Z,1.1
2023-04-01T10:39:14.825Z,1.3
2023-04-01T10:41:16.609Z,1
2023-04-01T10:43:18.335Z,1.2
2023-04-01T10:45:20.174Z,1
2023-04-01T10:47:25.399Z,1.2
2023-04-01T10:49:27.140Z,0.8
2023-04-01T10:51:28.859Z,1.3
2023-04-01T10:58:36.793Z,1.7
2023-04-01T11:00:42.033Z,1.2
2023-04-01T11:04:45.573Z,1.1
2023-04-01T11:07:26.260Z,1.1
2023-04-01T11:10:51.339Z,0.8
2023-04-01T11:16:59.598Z,1.4
2023-04-01T11:19:01.323Z,1.5
2023-04-01T11:21:03.062Z,1.4
2023-04-01T11:23:04.806Z,1.6
2023-04-01T11:25:06.524Z,1.8
2023-04-01T11:27:08.325Z,2.4
2023-04-01T11:29:13.489Z,2.9
2023-04-01T11:33:17.722Z,2.4
2023-04-01T11:35:18.751Z,2.8
2023-04-01T11:39:22.290Z,2.2
2023-04-01T11:41:24.033Z,2.6
2023-04-01T11:43:33.371Z,2.8
2023-04-01T11:45:44.632Z,2.6
2023-04-01T11:48:35.380Z,6.1
2023-04-01T11:50:37.208Z,4
2023-04-01T11:52:38.876Z,3.5
2023-04-01T11:54:40.659Z,2.6
2023-04-01T11:56:45.891Z,2.2
2023-04-01T12:00:49.376Z,2.4
2023-04-01T12:04:53.027Z,1.2
2023-04-01T12:06:54.653Z,1.1
2023-04-01T12:08:56.406Z,1.3
2023-04-01T12:11:01.650Z,1.3
2023-04-01T12:13:03.398Z,1.6
2023-04-01T12:19:08.667Z,1.2
2023-04-01T12:21:10.417Z,0.8
2023-04-01T12:23:12.189Z,1.3
2023-04-01T12:25:17.388Z,1.7
2023-04-01T12:29:35.542Z,1.8
2023-04-01T12:33:32.612Z,1.7
2023-04-01T12:36:35.505Z,1.8
2023-04-01T12:37:27.876Z,1.5
2023-04-01T12:46:00.601Z,2.1
2023-04-01T12:48:02.366Z,2.4
2023-04-01T12:54:15.473Z,2.2
2023-04-01T13:02:18.084Z,2.1
2023-04-01T13:13:02.948Z,1.4
2023-04-01T13:16:33.888Z,1.4
2023-04-01T13:18:35.672Z,1.6
2023-04-01T13:20:40.855Z,2
2023-04-01T13:22:42.624Z,1.7
2023-04-01T13:24:44.372Z,1.6
2023-04-01T13:39:01.736Z,2.7
2023-04-01T13:42:06.092Z,1.8
2023-04-01T13:44:07.876Z,2.1
2023-04-01T13:46:09.664Z,2.3
2023-04-01T13:48:15.106Z,2.8
2023-04-01T13:50:16.621Z,2.7
2023-04-01T13:52:18.358Z,2.8
2023-04-01T13:54:20.160Z,3
2023-04-01T13:56:21.833Z,3
2023-04-01T13:58:23.609Z,2.9
2023-04-01T14:00:25.358Z,2.6
2023-04-01T14:02:30.612Z,3.2
2023-04-01T14:04:32.650Z,2.4
2023-04-01T14:06:42.700Z,3
2023-04-01T14:10:37.600Z,3.1
2023-04-01T14:12:39.359Z,3
2023-04-01T14:16:54.610Z,3.5
2023-04-01T14:20:49.811Z,3.6
2023-04-01T14:26:55.121Z,4.1
2023-04-01T14:31:02.104Z,3.9
2023-04-01T14:38:09.938Z,3.6
2023-04-01T14:40:11.698Z,3.2
2023-04-01T14:42:21.942Z,2.8
2023-04-01T14:45:37.046Z,4
2023-04-01T14:52:25.660Z,3.5
2023-04-01T14:56:30.402Z,3.2
2023-04-01T15:08:22.175Z,2.9
2023-04-01T15:31:09.431Z,3.1
2023-04-01T15:32:11.995Z,2.7
2023-04-01T15:42:25.662Z,3.1
2023-04-01T15:46:29.215Z,3
2023-04-01T15:48:33.162Z,2.3
2023-04-01T15:52:32.924Z,2.7
2023-04-01T15:54:39.064Z,3.1
2023-04-01T15:56:40.812Z,2.9
2023-04-01T15:58:55.980Z,3.3
2023-04-01T16:01:12.555Z,3.1
2023-04-01T16:08:56.161Z,3.8
2023-04-01T16:10:58.756Z,3.1
2023-04-01T16:13:18.658Z,3
2023-04-01T16:15:01.772Z,2.7
2023-04-01T16:19:03.361Z,3.8
2023-04-01T16:21:05.085Z,3.1
2023-04-01T16:23:10.308Z,3.3
2023-04-01T16:25:12.043Z,2.8
2023-04-01T16:27:13.772Z,3
2023-04-01T16:34:22.599Z,2.3
2023-04-01T16:40:42.877Z,3.7
2023-04-01T16:42:32.211Z,3.6
2023-04-01T16:49:45.089Z,3.1
2023-04-01T17:02:22.750Z,3
2023-04-01T17:04:02.694Z,3.4
2023-04-01T17:15:22.613Z,3.5
2023-04-01T17:19:20.470Z,5.3
2023-04-01T17:44:43.689Z,-1
2023-04-01T17:46:50.524Z,2.7
2023-04-01T17:48:52.195Z,3.4
2023-04-01T17:50:56.695Z,1.9
2023-04-01T17:52:58.491Z,3.5
2023-04-01T17:55:00.316Z,3.2
2023-04-01T17:57:13.350Z,2.8
2023-04-01T17:59:17.301Z,3.1
2023-04-01T18:01:18.709Z,4.5
2023-04-01T18:03:12.784Z,3.5
2023-04-01T18:05:14.397Z,2.8
2023-04-01T18:07:16.122Z,2.9
2023-04-01T18:12:22.561Z,3
2023-04-01T18:14:24.373Z,2.8
2023-04-01T18:22:34.242Z,2.3
2023-04-01T18:42:19.944Z,2.2
2023-04-01T18:52:12.075Z,2.7
2023-04-01T18:54:15.643Z,2.3
2023-04-01T18:59:24.766Z,2.8
2023-04-01T19:01:26.512Z,2.8
2023-04-01T19:22:56.211Z,5.1
2023-04-01T19:24:58.644Z,4.4
2023-04-01T19:32:08.368Z,3.3
2023-04-01T19:34:10.095Z,4.2
2023-04-01T19:47:13.177Z,5.4
2023-04-01T20:05:49.732Z,5.7
2023-04-01T20:07:51.561Z,7.8
2023-04-01T20:09:53.273Z,6.1
2023-04-01T20:11:57.765Z,6.2
2023-04-01T20:13:59.437Z,5.8
2023-04-01T20:16:01.168Z,6.8
2023-04-01T20:18:05.581Z,7.2
2023-04-01T20:20:07.364Z,7
2023-04-01T20:22:09.106Z,5.8
2023-04-01T20:24:40.180Z,6.6
2023-04-01T20:26:19.828Z,6.7
2023-04-01T21:25:55.813Z,5.5
2023-04-01T21:36:05.537Z,6.3
2023-04-01T21:38:09.962Z,7.6
2023-04-01T21:40:11.745Z,6.1
2023-04-01T21:47:23.483Z,4.2
2023-04-01T21:49:26.289Z,6.1
2023-04-01T21:53:31.440Z,8
2023-04-01T21:55:33.425Z,6.7
2023-04-01T21:57:36.104Z,7.1
2023-04-01T22:04:47.913Z,7.8
2023-04-01T22:06:49.641Z,7.9
2023-04-01T22:10:55.819Z,8.6
2023-04-01T22:12:57.568Z,7.5
2023-04-01T22:15:01.991Z,6.9
2023-04-01T22:17:03.713Z,8
2023-04-01T22:19:05.474Z,8.8
2023-04-01T22:21:09.900Z,10
2023-04-01T22:23:11.615Z,9.5
2023-04-01T22:25:13.364Z,8.5
2023-04-01T22:27:17.795Z,8.8
2023-04-01T22:29:19.539Z,8.1
2023-04-01T22:31:21.330Z,9.3
2023-04-01T22:35:27.461Z,9.6
2023-04-01T22:37:29.194Z,9.9
2023-04-01T22:48:30.601Z,8.2
2023-04-01T22:50:32.359Z,8.3
2023-04-01T22:52:36.794Z,8.1
2023-04-01T22:54:38.644Z,9
2023-04-01T22:56:40.263Z,8.8
2023-04-01T22:58:44.740Z,8.9
2023-04-01T23:00:46.444Z,7.2
2023-04-01T23:02:48.304Z,9.3
2023-04-01T23:04:52.640Z,8.8
2023-04-01T23:11:00.533Z,9.8
2023-04-01T23:15:04.018Z,9.3
2023-04-01T23:17:08.447Z,10.2
2023-04-01T23:19:10.288Z,10.5
2023-04-01T23:21:11.956Z,9.8
2023-04-01T23:23:16.371Z,10.4
2023-04-01T23:25:18.158Z,11.2
2023-04-01T23:27:19.881Z,11.5
2023-04-01T23:36:19.578Z,10.5
2023-04-01T23:38:21.283Z,10.1
2023-04-01T23:42:27.472Z,11.5
2023-04-01T23:44:29.173Z,9.2
2023-04-01T23:46:31.070Z,10.6
2023-04-01T23:48:35.340Z,11.5
2023-04-01T23:50:37.077Z,8.8
2023-04-01T23:52:38.834Z,11
2023-04-01T23:54:43.240Z,8.5
2023-04-01T23:56:44.958Z,10.4
2023-04-01T23:58:46.688Z,10.2
